Time;durP1;ratioP1;P1;durP2;ratioP2;P2;SDS_P1;SDS_P2;PMS_P1;PMS_P2;Temp;Humidity;BMP_temperature;BMP_pressure;BME280_temperature;BME280_humidity;BME280_pressure;Samples;Min_cycle;Max_cycle;Signal;HPM_P1;HPM_P2
2022/08/31 00:04:01;;;;;;;2.45;1.05;;;16.20;99.90;;;;;;5114508;28;20092;-77
2022/08/31 00:06:32;;;;;;;1.05;0.70;;;16.20;99.90;;;;;;5113783;28;20044;-77
2022/08/31 00:08:58;;;;;;;2.97;0.68;;;16.20;99.90;;;;;;5114057;28;20058;-77
2022/08/31 00:11:28;;;;;;;0.82;0.40;;;16.20;99.90;;;;;;5114790;28;20059;-77
2022/08/31 00:14:00;;;;;;;1.70;0.45;;;16.10;99.90;;;;;;5116073;28;20152;-77
2022/08/31 00:16:30;;;;;;;1.25;0.80;;;16.10;99.90;;;;;;5114340;28;20512;-77
2022/08/31 00:18:56;;;;;;;1.20;0.57;;;16.20;99.90;;;;;;5114823;28;20398;-78
2022/08/31 00:21:25;;;;;;;2.67;0.73;;;16.10;99.90;;;;;;5114617;28;20036;-78
2022/08/31 00:23:51;;;;;;;2.10;0.75;;;16.10;99.90;;;;;;5115087;28;20031;-78
2022/08/31 00:26:18;;;;;;;1.00;0.70;;;16.10;99.90;;;;;;5113865;28;20039;-78
2022/08/31 00:28:44;;;;;;;1.35;0.70;;;16.10;99.90;;;;;;5114161;28;20032;-78
2022/08/31 00:31:10;;;;;;;1.70;0.80;;;16.10;99.90;;;;;;5113862;28;20044;-77
2022/08/31 00:33:35;;;;;;;1.90;0.85;;;16.10;99.90;;;;;;5097026;28;20036;-78
2022/08/31 00:36:07;;;;;;;1.38;0.50;;;16.00;99.90;;;;;;5114140;28;20547;-78
2022/08/31 00:38:33;;;;;;;1.98;0.85;;;16.10;99.90;;;;;;5112124;28;20101;-78
2022/08/31 00:40:58;;;;;;;2.13;0.88;;;16.00;99.90;;;;;;5112162;28;20509;-78
2022/08/31 00:43:40;;;;;;;0.65;0.50;;;16.00;99.90;;;;;;5111795;28;20148;-78
2022/08/31 00:46:07;;;;;;;;;;;16.00;99.90;;;;;;5111842;28;20036;-78
2022/08/31 00:48:35;;;;;;;2.00;0.60;;;16.00;99.90;;;;;;5146362;27;20012;-78
2022/08/31 00:51:01;;;;;;;1.17;0.50;;;16.00;99.90;;;;;;5113041;28;20036;-78
2022/08/31 00:53:27;;;;;;;1.67;0.60;;;16.00;99.90;;;;;;5110873;28;20042;-78
2022/08/31 00:55:53;;;;;;;1.70;0.60;;;16.00;99.90;;;;;;5111294;28;20067;-77
2022/08/31 00:58:19;;;;;;;1.10;0.45;;;16.00;99.90;;;;;;5111879;28;20480;-77
2022/08/31 01:00:45;;;;;;;2.55;0.68;;;15.90;99.90;;;;;;5111462;28;20039;-78
2022/08/31 01:03:11;;;;;;;1.75;0.55;;;15.90;99.90;;;;;;5113693;28;20043;-77
2022/08/31 01:05:38;;;;;;;1.23;0.50;;;15.90;99.90;;;;;;5120576;28;20039;-77
2022/08/31 01:08:05;;;;;;;1.23;0.40;;;15.90;99.90;;;;;;5128834;28;20048;-77
2022/08/31 01:10:35;;;;;;;0.80;0.50;;;15.90;99.90;;;;;;5125975;28;20036;-77
2022/08/31 01:13:01;;;;;;;3.40;0.50;;;15.80;99.90;;;;;;5112447;28;20452;-77
2022/08/31 01:15:29;;;;;;;2.50;0.55;;;15.80;99.90;;;;;;5111345;28;20043;-77
2022/08/31 01:17:58;;;;;;;1.42;0.50;;;15.80;99.90;;;;;;5094507;28;20538;-78
2022/08/31 01:20:47;;;;;;;0.50;0.47;;;15.80;99.90;;;;;;5095051;28;20075;-78
2022/08/31 01:23:23;;;;;;;0.30;0.30;;;15.80;99.90;;;;;;5111995;28;20408;-78
2022/08/31 01:25:51;;;;;;;2.55;0.60;;;15.70;99.90;;;;;;5111862;28;20043;-78
2022/08/31 01:28:17;;;;;;;1.17;0.32;;;15.80;99.90;;;;;;5113822;28;20614;-78
2022/08/31 01:30:56;;;;;;;2.17;0.47;;;15.80;99.90;;;;;;5094125;28;20078;-76
2022/08/31 01:33:22;;;;;;;0.98;0.32;;;15.80;99.90;;;;;;5111160;28;20490;-76
2022/08/31 01:35:47;;;;;;;1.42;0.40;;;15.70;99.90;;;;;;5110503;28;20047;-77
2022/08/31 01:38:13;;;;;;;1.20;0.40;;;15.70;99.90;;;;;;5110628;28;20093;-77
2022/08/31 01:40:48;;;;;;;0.75;0.30;;;15.70;99.90;;;;;;5111120;28;20139;-77
2022/08/31 01:43:13;;;;;;;0.90;0.22;;;15.60;99.90;;;;;;5111045;28;20112;-78
2022/08/31 01:45:39;;;;;;;0.40;0.35;;;15.60;99.90;;;;;;5110298;28;20055;-77
2022/08/31 01:48:04;;;;;;;0.47;0.38;;;15.50;99.90;;;;;;5110590;28;20040;-77
2022/08/31 01:50:30;;;;;;;0.52;0.40;;;15.40;99.90;;;;;;5110666;28;20073;-76
2022/08/31 01:52:56;;;;;;;0.50;0.30;;;15.40;99.90;;;;;;5094032;28;20088;-77
2022/08/31 01:55:21;;;;;;;0.45;0.20;;;15.30;99.90;;;;;;5110270;28;20486;-77
2022/08/31 01:57:47;;;;;;;0.75;0.57;;;15.30;99.90;;;;;;5110594;28;20067;-76
2022/08/31 02:00:13;;;;;;;0.45;0.35;;;15.30;99.90;;;;;;5110625;28;20054;-77
2022/08/31 02:02:39;;;;;;;3.13;0.35;;;15.20;99.90;;;;;;5110508;28;20044;-77
2022/08/31 02:05:05;;;;;;;0.30;0.10;;;15.10;99.90;;;;;;5112816;28;20032;-77
2022/08/31 02:07:31;;;;;;;0.60;0.43;;;15.10;99.90;;;;;;5114930;28;20051;-77
2022/08/31 02:09:57;;;;;;;1.02;0.68;;;15.00;99.90;;;;;;5114654;28;20046;-77
2022/08/31 02:12:23;;;;;;;1.83;0.57;;;15.00;99.90;;;;;;5114631;28;20044;-77
2022/08/31 02:14:48;;;;;;;1.38;0.50;;;14.90;99.90;;;;;;5114160;28;20054;-77
2022/08/31 02:17:15;;;;;;;0.43;0.30;;;14.90;99.90;;;;;;5115719;28;20108;-77
2022/08/31 02:19:40;;;;;;;0.68;0.35;;;14.90;99.90;;;;;;5097619;28;20220;-77
2022/08/31 02:22:06;;;;;;;0.63;0.30;;;14.80;99.90;;;;;;5097490;28;20577;-77
2022/08/31 02:24:32;;;;;;;0.65;0.20;;;14.80;99.90;;;;;;5114324;28;20050;-77
2022/08/31 02:26:57;;;;;;;1.02;0.60;;;14.70;99.90;;;;;;5115321;28;20048;-77
2022/08/31 02:29:23;;;;;;;0.50;0.20;;;14.70;99.90;;;;;;5114341;28;20176;-77
2022/08/31 02:31:48;;;;;;;1.75;0.45;;;14.60;99.90;;;;;;5114293;28;20046;-77
2022/08/31 02:34:16;;;;;;;0.70;0.40;;;14.60;99.90;;;;;;5115389;28;20432;-77
2022/08/31 02:36:44;;;;;;;1.58;0.40;;;14.60;99.90;;;;;;5113974;28;20078;-77
2022/08/31 02:39:10;;;;;;;0.40;0.20;;;14.60;99.90;;;;;;5114012;28;20043;-77
2022/08/31 02:41:36;;;;;;;0.45;0.32;;;14.50;99.90;;;;;;5114050;28;20477;-77
2022/08/31 02:44:02;;;;;;;0.70;0.30;;;14.50;99.90;;;;;;5114184;28;20100;-77
2022/08/31 02:46:27;;;;;;;0.80;0.38;;;14.50;99.90;;;;;;5113707;28;20519;-77
2022/08/31 02:48:53;;;;;;;0.88;0.50;;;14.40;99.90;;;;;;5096875;28;20043;-77
2022/08/31 02:51:18;;;;;;;1.17;0.32;;;14.40;99.90;;;;;;5097147;28;20046;-77
2022/08/31 02:53:44;;;;;;;0.28;0.28;;;14.40;99.90;;;;;;5113837;28;20114;-77
2022/08/31 02:56:13;;;;;;;1.67;0.60;;;14.30;99.90;;;;;;5113611;28;20046;-77
2022/08/31 02:58:39;;;;;;;0.50;0.30;;;14.30;99.90;;;;;;5096967;28;20044;-76
2022/08/31 03:01:05;;;;;;;5.63;0.50;;;14.30;99.90;;;;;;5096779;28;20051;-76
2022/08/31 03:03:32;;;;;;;0.30;0.20;;;14.20;99.90;;;;;;5113754;28;20098;-77
2022/08/31 03:05:57;;;;;;;0.60;0.40;;;14.20;99.90;;;;;;5096497;28;20036;-77
2022/08/31 03:08:23;;;;;;;0.70;0.30;;;14.20;99.90;;;;;;5115004;28;20374;-77
2022/08/31 03:10:48;;;;;;;0.90;0.40;;;14.10;99.90;;;;;;5113799;28;20047;-77
2022/08/31 03:13:14;;;;;;;2.00;0.30;;;14.10;99.90;;;;;;5113860;28;20062;-77
2022/08/31 03:15:40;;;;;;;0.73;0.32;;;14.00;99.90;;;;;;5113060;28;20118;-78
2022/08/31 03:18:06;;;;;;;0.43;0.30;;;14.00;99.90;;;;;;5113604;28;20047;-77
2022/08/31 03:20:31;;;;;;;1.02;0.30;;;14.00;99.90;;;;;;5113930;28;20042;-77
2022/08/31 03:22:57;;;;;;;0.60;0.38;;;13.90;99.90;;;;;;5113776;28;20180;-77
2022/08/31 03:25:23;;;;;;;0.73;0.30;;;13.90;99.90;;;;;;5113348;28;20127;-77
2022/08/31 03:27:49;;;;;;;1.27;0.45;;;13.90;99.90;;;;;;5113323;28;20550;-77
2022/08/31 03:30:18;;;;;;;1.83;0.30;;;13.90;99.90;;;;;;5113060;28;20485;-77
2022/08/31 03:32:44;;;;;;;0.75;0.28;;;13.70;99.90;;;;;;5096406;28;20470;-77
2022/08/31 03:35:10;;;;;;;0.63;0.30;;;13.70;99.90;;;;;;5113375;28;20047;-77
2022/08/31 03:37:36;;;;;;;1.27;0.30;;;13.70;99.90;;;;;;5113097;28;20038;-77
2022/08/31 03:40:02;;;;;;;1.45;0.35;;;13.50;99.90;;;;;;5113185;28;20036;-77
2022/08/31 03:42:28;;;;;;;1.98;0.45;;;13.60;99.90;;;;;;5113126;28;20065;-77
2022/08/31 03:44:54;;;;;;;0.45;0.28;;;13.60;99.90;;;;;;5113075;28;20043;-78
2022/08/31 03:47:20;;;;;;;0.60;0.40;;;13.50;99.90;;;;;;5114339;28;20036;-77
2022/08/31 03:49:45;;;;;;;0.95;0.40;;;13.60;99.90;;;;;;5114313;28;20052;-77
2022/08/31 03:52:11;;;;;;;0.85;0.40;;;13.50;99.90;;;;;;5113079;28;20027;-77
2022/08/31 03:54:37;;;;;;;1.58;0.57;;;13.50;99.90;;;;;;5113166;28;20058;-77
2022/08/31 03:57:06;;;;;;;4.00;0.50;;;13.50;99.90;;;;;;5112416;28;20081;-77
2022/08/31 03:59:32;;;;;;;1.45;0.40;;;13.40;99.90;;;;;;5095845;28;20481;-77
2022/08/31 04:01:58;;;;;;;0.80;0.40;;;13.40;99.90;;;;;;5112574;28;20131;-77
2022/08/31 04:04:23;;;;;;;1.30;0.40;;;13.30;99.90;;;;;;5112665;28;20093;-77
2022/08/31 04:06:49;;;;;;;1.05;0.50;;;13.30;99.90;;;;;;5113593;28;20403;-77
2022/08/31 04:09:15;;;;;;;0.60;0.47;;;13.30;99.90;;;;;;5112435;28;20049;-77
2022/08/31 04:11:42;;;;;;;0.98;0.40;;;13.20;99.90;;;;;;5112623;28;20050;-77
2022/08/31 04:14:10;;;;;;;2.13;0.73;;;13.10;99.90;;;;;;5112488;28;20044;-78
2022/08/31 04:16:37;;;;;;;1.55;0.80;;;13.10;99.90;;;;;;5112067;28;20401;-77
2022/08/31 04:19:04;;;;;;;1.75;0.75;;;13.10;99.90;;;;;;5112533;28;20466;-77
2022/08/31 04:21:30;;;;;;;0.88;0.40;;;13.10;99.90;;;;;;5112282;28;20054;-78
2022/08/31 04:23:57;;;;;;;1.23;0.63;;;13.00;99.90;;;;;;5095468;28;20048;-77
2022/08/31 04:26:24;;;;;;;0.63;0.30;;;13.10;99.90;;;;;;5112318;28;20082;-77
2022/08/31 04:28:51;;;;;;;0.77;0.47;;;13.00;99.90;;;;;;5111248;28;20075;-77
2022/08/31 04:31:17;;;;;;;0.60;0.40;;;13.00;99.90;;;;;;5112096;28;20074;-77
2022/08/31 04:33:43;;;;;;;2.03;0.60;;;13.00;99.90;;;;;;5112206;28;20554;-77
2022/08/31 04:36:12;;;;;;;0.77;0.50;;;13.00;99.90;;;;;;5112146;28;20040;-77
2022/08/31 04:38:40;;;;;;;1.40;0.63;;;13.00;99.90;;;;;;5112261;28;20447;-77
2022/08/31 04:41:08;;;;;;;1.65;0.98;;;12.90;99.90;;;;;;5113625;28;20505;-78
2022/08/31 04:43:35;;;;;;;2.53;0.60;;;12.90;99.90;;;;;;5111907;28;20081;-78
2022/08/31 04:46:03;;;;;;;0.88;0.60;;;12.90;99.90;;;;;;5111616;28;20118;-77
2022/08/31 04:48:28;;;;;;;0.68;0.60;;;12.80;99.90;;;;;;5111720;28;20138;-78
2022/08/31 04:51:14;;;;;;;1.40;0.75;;;12.90;99.90;;;;;;5094947;28;20134;-77
2022/08/31 04:53:41;;;;;;;0.80;0.60;;;12.80;99.90;;;;;;5112994;28;20040;-77
2022/08/31 04:56:15;;;;;;;2.17;0.63;;;12.80;99.90;;;;;;5111293;28;20122;-78
2022/08/31 04:58:43;;;;;;;2.05;0.50;;;12.80;99.90;;;;;;5112026;28;20044;-77
2022/08/31 05:01:10;;;;;;;3.35;0.90;;;12.80;99.90;;;;;;5094632;28;20050;-77
2022/08/31 05:03:37;;;;;;;0.93;0.70;;;12.70;99.90;;;;;;5111384;28;20047;-77
2022/08/31 05:06:03;;;;;;;0.90;0.70;;;12.80;99.90;;;;;;5111300;28;20153;-77
2022/08/31 05:08:29;;;;;;;1.52;0.60;;;12.70;99.90;;;;;;5111550;28;20078;-77
2022/08/31 05:10:55;;;;;;;3.22;0.90;;;12.80;99.90;;;;;;5111544;28;20039;-77
2022/08/31 05:13:21;;;;;;;1.70;0.80;;;12.80;99.90;;;;;;5128432;28;20077;-76
2022/08/31 05:15:47;;;;;;;1.13;0.50;;;12.70;99.90;;;;;;5126657;28;20424;-77
2022/08/31 05:18:13;;;;;;;2.38;0.60;;;12.80;99.90;;;;;;5111636;28;20038;-77
2022/08/31 05:20:39;;;;;;;1.00;0.50;;;12.90;99.90;;;;;;5094267;28;20040;-77
2022/08/31 05:23:05;;;;;;;3.83;0.90;;;12.80;99.90;;;;;;5111167;28;20402;-78
2022/08/31 05:25:32;;;;;;;2.75;0.70;;;12.80;99.90;;;;;;5094553;28;20032;-79
2022/08/31 05:27:58;;;;;;;2.92;0.77;;;12.80;99.90;;;;;;5094477;28;20032;-79
2022/08/31 05:30:24;;;;;;;1.02;0.63;;;12.80;99.90;;;;;;5111111;28;20547;-79
2022/08/31 05:32:50;;;;;;;1.45;0.70;;;12.70;99.90;;;;;;5094523;28;20044;-79
2022/08/31 05:35:16;;;;;;;1.38;1.00;;;12.70;99.90;;;;;;5111459;28;20402;-78
2022/08/31 05:37:41;;;;;;;1.95;0.77;;;12.80;99.90;;;;;;5112562;28;20421;-79
2022/08/31 05:40:08;;;;;;;3.55;1.75;;;12.80;99.90;;;;;;5112228;28;20164;-78
2022/08/31 05:42:34;;;;;;;2.85;1.20;;;12.80;99.90;;;;;;5111842;28;20492;-78
2022/08/31 05:45:00;;;;;;;2.15;0.90;;;12.90;99.90;;;;;;5110123;28;20446;-78
2022/08/31 05:47:25;;;;;;;1.13;0.57;;;12.90;99.90;;;;;;5111763;28;20411;-77
2022/08/31 05:49:52;;;;;;;4.53;0.68;;;12.90;99.90;;;;;;5111702;28;20071;-78
2022/08/31 05:52:18;;;;;;;0.93;0.68;;;13.00;99.90;;;;;;5111913;28;20575;-78
2022/08/31 05:54:44;;;;;;;2.20;0.65;;;13.00;99.90;;;;;;5093328;28;20043;-77
2022/08/31 05:57:10;;;;;;;3.70;0.98;;;13.10;99.90;;;;;;5111451;28;20089;-77
2022/08/31 05:59:38;;;;;;;3.53;1.05;;;13.10;99.90;;;;;;5110777;28;20048;-78
2022/08/31 06:02:04;;;;;;;2.45;0.70;;;13.30;99.90;;;;;;5111914;28;20122;-78
2022/08/31 06:04:29;;;;;;;2.70;0.93;;;13.30;99.90;;;;;;5110398;28;20123;-78
2022/08/31 06:06:56;;;;;;;1.90;0.60;;;13.30;99.90;;;;;;5111284;28;20088;-78
2022/08/31 06:09:22;;;;;;;1.75;0.90;;;13.30;99.90;;;;;;5110066;28;20466;-78
2022/08/31 06:11:47;;;;;;;2.05;0.95;;;13.40;99.90;;;;;;5110319;28;20075;-78
2022/08/31 06:14:13;;;;;;;1.92;0.80;;;13.40;99.90;;;;;;5110186;28;20041;-78
2022/08/31 06:16:42;;;;;;;2.03;1.10;;;13.50;99.90;;;;;;5111262;28;20042;-78
2022/08/31 06:19:08;;;;;;;3.33;1.00;;;13.60;99.90;;;;;;5109141;28;20055;-78
2022/08/31 06:21:38;;;;;;;3.28;1.00;;;13.60;99.90;;;;;;5106463;28;20035;-78
2022/08/31 06:24:05;;;;;;;3.50;0.90;;;13.70;99.90;;;;;;5106237;28;20505;-78
2022/08/31 06:26:33;;;;;;;3.45;1.02;;;13.70;99.90;;;;;;5108038;28;20071;-77
2022/08/31 06:29:01;;;;;;;3.25;0.90;;;13.80;99.90;;;;;;5108049;28;20557;-77
2022/08/31 06:31:37;;;;;;;1.33;0.70;;;13.90;99.90;;;;;;5105769;28;20039;-77
2022/08/31 06:34:05;;;;;;;1.55;0.98;;;13.90;99.90;;;;;;5106488;28;20495;-78
2022/08/31 06:36:32;;;;;;;1.05;0.93;;;14.00;99.90;;;;;;5106322;28;20089;-77
2022/08/31 06:38:59;;;;;;;1.67;0.77;;;14.10;99.90;;;;;;5107215;28;20050;-81
2022/08/31 06:41:28;;;;;;;2.15;0.70;;;14.10;99.90;;;;;;5110951;28;20532;-81
2022/08/31 06:43:54;;;;;;;2.13;0.73;;;14.20;99.90;;;;;;5111487;28;20482;-82
2022/08/31 06:46:22;;;;;;;2.45;0.82;;;14.30;99.90;;;;;;5116610;28;20050;-81
2022/08/31 06:48:49;;;;;;;0.95;0.85;;;14.40;99.90;;;;;;5104633;28;20043;-82
2022/08/31 06:51:16;;;;;;;1.10;0.88;;;14.40;99.90;;;;;;5085887;28;20539;-81
2022/08/31 06:53:42;;;;;;;0.98;0.60;;;14.50;99.90;;;;;;5145430;27;20532;-82
2022/08/31 06:56:17;;;;;;;2.53;0.85;;;14.60;99.90;;;;;;5113431;28;20047;-82
2022/08/31 06:58:43;;;;;;;10.68;1.50;;;14.80;99.90;;;;;;5114297;28;20445;-81
2022/08/31 07:01:14;;;;;;;2.15;0.90;;;14.90;99.90;;;;;;5096912;28;20130;-82
2022/08/31 07:03:42;;;;;;;1.37;0.60;;;14.90;99.90;;;;;;5097213;28;20035;-83
2022/08/31 07:06:20;;;;;;;1.33;0.80;;;15.10;99.90;;;;;;5114830;28;20096;-82
2022/08/31 07:08:50;;;;;;;1.60;0.80;;;15.30;99.90;;;;;;5115469;28;20036;-81
2022/08/31 07:11:22;;;;;;;0.88;0.73;;;15.50;99.90;;;;;;5115509;28;20085;-82
2022/08/31 07:13:50;;;;;;;1.38;0.80;;;15.80;99.90;;;;;;5108916;28;20031;-82
2022/08/31 07:16:19;;;;;;;1.92;0.70;;;16.30;99.90;;;;;;5113369;28;20042;-83
2022/08/31 07:18:46;;;;;;;1.88;0.70;;;16.70;99.90;;;;;;5123528;27;20058;-82
2022/08/31 07:21:21;;;;;;;2.25;0.82;;;17.10;99.90;;;;;;5112308;28;20114;-81
2022/08/31 07:23:47;;;;;;;2.47;1.40;;;17.70;99.90;;;;;;5114076;28;20062;-80
2022/08/31 07:26:16;;;;;;;0.88;0.70;;;18.30;99.90;;;;;;5111583;28;20035;-80
2022/08/31 07:28:43;;;;;;;1.02;0.65;;;18.90;99.90;;;;;;5114289;28;20251;-82
2022/08/31 07:31:13;;;;;;;2.42;0.80;;;19.20;99.90;;;;;;5113785;28;20055;-81
2022/08/31 07:33:40;;;;;;;3.90;0.70;;;19.50;99.90;;;;;;5096551;28;20035;-81
2022/08/31 07:36:08;;;;;;;1.48;0.70;;;19.70;99.90;;;;;;5113756;28;20075;-82
2022/08/31 07:44:10;;;;;;;2.03;0.70;;;19.30;99.90;;;;;;5113554;28;20134;-81
2022/08/31 07:46:36;;;;;;;1.40;0.70;;;19.30;99.90;;;;;;5115665;28;20047;-80
2022/08/31 07:49:07;;;;;;;2.08;0.70;;;19.40;99.90;;;;;;5114207;28;20118;-81
2022/08/31 07:51:33;;;;;;;4.30;0.70;;;19.40;99.90;;;;;;5096368;28;20043;-80
2022/08/31 07:53:59;;;;;;;3.67;0.80;;;19.50;99.90;;;;;;5114315;28;20393;-82
2022/08/31 07:56:25;;;;;;;2.42;0.80;;;19.70;99.90;;;;;;5113099;28;20040;-82
2022/08/31 07:58:50;;;;;;;6.82;1.00;;;19.90;99.90;;;;;;5112404;28;20043;-81
2022/08/31 08:01:17;;;;;;;3.95;0.98;;;20.10;99.90;;;;;;5112915;28;20506;-82
2022/08/31 08:03:43;;;;;;;1.92;0.90;;;20.30;99.90;;;;;;5095996;28;20519;-81
2022/08/31 08:06:16;;;;;;;10.38;5.70;;;20.30;99.90;;;;;;5112175;28;20118;-81
2022/08/31 08:08:43;;;;;;;2.53;1.35;;;20.40;99.00;;;;;;5093120;28;20625;-80
2022/08/31 08:11:19;;;;;;;0.70;0.63;;;20.70;99.90;;;;;;5109628;28;20039;-82
2022/08/31 08:13:45;;;;;;;1.25;0.90;;;21.10;96.70;;;;;;5090307;28;20040;-81
2022/08/31 08:16:11;;;;;;;2.08;0.80;;;21.30;97.90;;;;;;5105799;28;20406;-80
2022/08/31 08:18:36;;;;;;;2.22;0.73;;;21.00;96.80;;;;;;5109565;28;20397;-80
2022/08/31 08:21:03;;;;;;;1.38;0.47;;;21.10;96.30;;;;;;5109275;28;20047;-80
2022/08/31 08:23:29;;;;;;;1.63;0.60;;;21.10;96.00;;;;;;5111162;28;20048;-81
2022/08/31 08:25:59;;;;;;;1.88;0.60;;;21.10;95.40;;;;;;5108948;28;20047;-81
2022/08/31 08:28:29;;;;;;;1.90;0.60;;;21.00;95.00;;;;;;5109338;28;20206;-81
2022/08/31 08:30:59;;;;;;;1.38;0.70;;;21.20;94.90;;;;;;5131857;28;20114;-80
2022/08/31 08:33:29;;;;;;;4.47;0.65;;;21.40;93.90;;;;;;5135902;28;20082;-78
2022/08/31 08:36:02;;;;;;;2.30;0.57;;;21.40;93.40;;;;;;5117801;27;20044;-82
2022/08/31 08:38:29;;;;;;;2.42;0.90;;;21.50;93.70;;;;;;5107885;28;20461;-82
2022/08/31 08:41:00;;;;;;;1.00;0.60;;;21.40;93.30;;;;;;5108481;28;20406;-82
2022/08/31 08:43:32;;;;;;;1.40;0.50;;;21.50;93.50;;;;;;5108585;28;20047;-81
2022/08/31 08:45:59;;;;;;;1.27;0.52;;;21.70;90.90;;;;;;5105456;28;20039;-82
2022/08/31 08:48:29;;;;;;;1.63;0.70;;;21.80;92.30;;;;;;5111073;28;20114;-81
2022/08/31 08:50:54;;;;;;;1.88;0.60;;;22.10;92.50;;;;;;5111717;28;20051;-81
2022/08/31 08:53:27;;;;;;;4.20;0.60;;;22.50;91.90;;;;;;5111671;28;20434;-82
2022/08/31 08:55:54;;;;;;;2.00;0.35;;;22.60;90.40;;;;;;5111142;28;20031;-80
2022/08/31 08:58:20;;;;;;;1.05;0.50;;;22.60;89.70;;;;;;5111354;28;20050;-81
2022/08/31 09:00:52;;;;;;;1.80;0.60;;;22.70;89.10;;;;;;5112685;28;20044;-82
2022/08/31 09:03:45;;;;;;;2.70;0.57;;;23.00;87.00;;;;;;5111341;28;20146;-80
2022/08/31 09:06:46;;;;;;;1.10;0.40;;;23.10;79.40;;;;;;5093450;28;20043;-80
2022/08/31 09:09:23;;;;;;;3.20;0.88;;;22.90;79.20;;;;;;5111182;28;20404;-81
2022/08/31 09:12:21;;;;;;;1.55;0.70;;;22.60;80.60;;;;;;5111197;28;20051;-81
2022/08/31 09:15:15;;;;;;;4.82;0.73;;;22.30;77.40;;;;;;5093177;28;20070;-82
2022/08/31 09:17:54;;;;;;;3.92;0.73;;;22.40;82.10;;;;;;5111036;28;20491;-82
2022/08/31 09:20:20;;;;;;;9.32;0.70;;;22.60;82.40;;;;;;5111032;28;20043;-81
2022/08/31 09:22:49;;;;;;;1.95;0.60;;;22.70;81.10;;;;;;5110848;28;20039;-82
2022/08/31 09:25:28;;;;;;;7.38;0.70;;;22.90;81.10;;;;;;5110175;28;20043;-83
2022/08/31 09:27:58;;;;;;;1.52;0.60;;;23.20;76.70;;;;;;5094006;28;20071;-85
2022/08/31 09:30:52;;;;;;;1.20;0.57;;;23.50;79.80;;;;;;5111271;28;20035;-83
2022/08/31 09:33:25;;;;;;;1.02;0.60;;;23.60;73.80;;;;;;5110318;28;20113;-83
2022/08/31 09:35:57;;;;;;;3.75;0.60;;;23.50;73.90;;;;;;5111349;28;20493;-83
2022/08/31 09:38:42;;;;;;;1.38;0.60;;;23.10;75.00;;;;;;5093679;28;20442;-83
2022/08/31 09:41:29;;;;;;;1.90;0.43;;;23.10;74.80;;;;;;5110879;28;20051;-84
2022/08/31 09:44:18;;;;;;;1.15;0.50;;;23.30;73.10;;;;;;5093315;28;20528;-83
2022/08/31 09:46:49;;;;;;;1.02;0.50;;;23.30;70.00;;;;;;5110614;28;20046;-84
2022/08/31 09:49:21;;;;;;;2.35;0.55;;;23.30;72.10;;;;;;5108767;28;20047;-83
2022/08/31 09:51:48;;;;;;;2.08;0.70;;;23.40;71.90;;;;;;5091327;28;20438;-84
2022/08/31 09:56:59;;;;;;;2.72;0.60;;;23.50;70.70;;;;;;5107349;28;20050;-85
2022/08/31 09:59:42;;;;;;;2.33;0.40;;;23.50;70.50;;;;;;5091696;28;20058;-85
2022/08/31 10:02:21;;;;;;;2.25;0.75;;;23.50;70.20;;;;;;5106212;28;20103;-83
2022/08/31 10:04:53;;;;;;;3.03;0.40;;;23.70;67.30;;;;;;5089532;28;20486;-85
2022/08/31 10:07:44;;;;;;;2.10;0.70;;;23.80;67.80;;;;;;5089966;28;20043;-84
2022/08/31 10:10:18;;;;;;;3.50;0.60;;;24.00;66.60;;;;;;5138236;27;20493;-86
2022/08/31 10:13:06;;;;;;;0.60;0.40;;;24.20;67.50;;;;;;5109180;28;20066;-79
2022/08/31 10:15:38;;;;;;;1.95;0.60;;;24.10;66.30;;;;;;5140717;27;20043;-77
2022/08/31 10:18:16;;;;;;;3.08;0.60;;;23.80;65.30;;;;;;5110017;28;20047;-78
2022/08/31 10:21:11;;;;;;;3.83;0.60;;;23.60;65.70;;;;;;5110343;28;20050;-78
2022/08/31 10:24:09;;;;;;;2.30;0.50;;;23.40;65.60;;;;;;5111422;28;20051;-75
2022/08/31 10:26:45;;;;;;;1.85;0.65;;;23.30;66.60;;;;;;5113210;28;20038;-77
2022/08/31 10:29:44;;;;;;;3.92;0.50;;;23.30;68.00;;;;;;5114218;28;20474;-77
2022/08/31 10:32:41;;;;;;;1.00;0.50;;;23.30;68.40;;;;;;5114011;28;20051;-77
2022/08/31 10:35:36;;;;;;;1.65;0.40;;;23.30;67.00;;;;;;5105576;28;20516;-77
2022/08/31 10:38:24;;;;;;;4.80;0.43;;;23.20;65.70;;;;;;5111944;28;20101;-79
2022/08/31 10:40:59;;;;;;;2.08;0.52;;;23.20;66.30;;;;;;5092856;28;20036;-79
2022/08/31 10:43:54;;;;;;;1.83;0.35;;;23.20;67.00;;;;;;5113616;28;20046;-79
2022/08/31 10:46:20;;;;;;;1.15;0.40;;;23.20;64.70;;;;;;5108546;28;20101;-78
2022/08/31 10:48:52;;;;;;;0.60;0.40;;;23.10;65.40;;;;;;5113514;28;20047;-79
2022/08/31 10:51:22;;;;;;;0.98;0.50;;;23.00;65.40;;;;;;5097050;28;20036;-79
2022/08/31 10:54:02;;;;;;;4.75;0.52;;;23.10;65.10;;;;;;5096495;28;20135;-78
2022/08/31 10:57:08;;;;;;;1.27;0.55;;;23.30;64.40;;;;;;5096367;28;20551;-78
2022/08/31 11:00:03;;;;;;;2.38;0.50;;;23.30;65.10;;;;;;5113536;28;20040;-78
2022/08/31 11:02:32;;;;;;;0.85;0.47;;;23.40;64.40;;;;;;5113482;28;20039;-79
2022/08/31 11:04:57;;;;;;;6.90;0.50;;;23.50;65.30;;;;;;5096412;28;20491;-78
2022/08/31 11:07:36;;;;;;;0.77;0.40;;;23.60;64.70;;;;;;5096335;28;20127;-79
2022/08/31 11:10:19;;;;;;;1.15;0.47;;;23.60;63.50;;;;;;5113005;28;20040;-77
2022/08/31 11:12:51;;;;;;;0.60;0.50;;;23.70;61.90;;;;;;5096335;28;20039;-77
2022/08/31 11:15:21;;;;;;;;;;;23.60;61.90;;;;;;5113346;28;20050;-79
2022/08/31 11:18:08;;;;;;;2.10;0.50;;;23.40;60.20;;;;;;5113284;28;19916;-79
2022/08/31 11:20:55;;;;;;;1.45;0.50;;;23.30;62.10;;;;;;5113266;28;20050;-78
2022/08/31 11:23:39;;;;;;;1.58;0.40;;;23.30;61.30;;;;;;5096376;28;20039;-78
2022/08/31 11:26:25;;;;;;;1.30;0.40;;;23.10;62.20;;;;;;5112507;28;20074;-79
2022/08/31 11:29:12;;;;;;;2.13;0.45;;;23.30;61.40;;;;;;5112697;28;20060;-77
2022/08/31 11:31:39;;;;;;;1.02;0.45;;;23.10;60.10;;;;;;5109500;28;20097;-77
2022/08/31 11:34:27;;;;;;;1.38;0.38;;;23.10;61.00;;;;;;5093643;28;20394;-79
2022/08/31 11:37:03;;;;;;;2.70;0.50;;;23.30;61.80;;;;;;5105830;28;20047;-78
2022/08/31 11:39:32;;;;;;;0.57;0.30;;;23.40;61.20;;;;;;5110397;28;20591;-78
2022/08/31 11:41:59;;;;;;;0.88;0.32;;;23.50;61.10;;;;;;5108648;28;20122;-79
2022/08/31 11:44:32;;;;;;;2.75;0.65;;;23.70;60.60;;;;;;5108470;28;20062;-78
2022/08/31 11:47:14;;;;;;;0.93;0.47;;;23.70;60.00;;;;;;5108779;28;20128;-78
2022/08/31 11:49:54;;;;;;;1.20;0.55;;;23.80;60.00;;;;;;5108830;28;20036;-79
2022/08/31 11:52:20;;;;;;;0.73;0.30;;;24.00;59.50;;;;;;5107586;28;20516;-79
2022/08/31 11:54:47;;;;;;;1.60;0.47;;;24.10;59.50;;;;;;5109173;28;20541;-80
2022/08/31 11:57:19;;;;;;;2.03;0.40;;;24.20;59.40;;;;;;5106599;28;20126;-79
2022/08/31 11:59:48;;;;;;;3.90;0.60;;;24.40;59.50;;;;;;5091473;28;20036;-79
2022/08/31 12:02:22;;;;;;;1.20;0.40;;;24.50;59.20;;;;;;5108198;28;20050;-78
2022/08/31 12:04:50;;;;;;;4.03;0.57;;;24.50;59.30;;;;;;5104077;28;20549;-79
2022/08/31 12:07:28;;;;;;;0.70;0.47;;;24.40;59.50;;;;;;5116552;28;20043;-80
2022/08/31 12:10:18;;;;;;;4.53;0.65;;;24.30;59.60;;;;;;5108957;28;20024;-79
2022/08/31 12:13:08;;;;;;;0.75;0.40;;;24.40;59.40;;;;;;5091488;28;20067;-78
2022/08/31 12:16:06;;;;;;;1.75;0.95;;;24.40;57.80;;;;;;5111783;28;20504;-78
2022/08/31 12:18:56;;;;;;;2.78;0.50;;;24.30;57.50;;;;;;5111468;28;20047;-78
2022/08/31 12:25:00;;;;;;;1.20;0.60;;;24.00;57.00;;;;;;5111460;28;20043;-79
2022/08/31 12:27:52;;;;;;;2.45;0.75;;;24.10;56.70;;;;;;5111640;28;20051;-78
2022/08/31 12:30:24;;;;;;;4.88;0.80;;;24.20;56.80;;;;;;5094385;28;20082;-79
2022/08/31 12:33:15;;;;;;;2.05;0.50;;;24.30;56.80;;;;;;5094375;28;20502;-78
2022/08/31 12:35:41;;;;;;;1.42;0.47;;;24.30;55.60;;;;;;5110896;28;20044;-80
2022/08/31 12:38:17;;;;;;;0.85;0.50;;;24.40;56.50;;;;;;5112774;28;20036;-80
2022/08/31 12:40:53;;;;;;;0.98;0.50;;;24.40;56.80;;;;;;5112713;28;20043;-79
2022/08/31 12:43:23;;;;;;;1.80;0.40;;;24.50;56.70;;;;;;5113322;28;20092;-79
2022/08/31 12:46:01;;;;;;;0.63;0.40;;;24.60;56.30;;;;;;5109210;28;20078;-79
2022/08/31 12:48:48;;;;;;;4.32;0.40;;;24.70;54.10;;;;;;5106833;28;20603;-79
2022/08/31 12:51:24;;;;;;;2.53;0.60;;;24.60;55.80;;;;;;5106871;28;20043;-80
2022/08/31 12:54:27;;;;;;;2.97;0.68;;;24.60;54.40;;;;;;5140510;27;20027;-80
2022/08/31 12:57:01;;;;;;;0.88;0.55;;;24.60;54.70;;;;;;5093193;28;20038;-80
2022/08/31 12:59:44;;;;;;;1.88;0.43;;;24.60;55.00;;;;;;5091295;28;20040;-80
2022/08/31 13:02:12;;;;;;;0.80;0.43;;;24.70;54.40;;;;;;5107059;28;20500;-79
2022/08/31 13:04:44;;;;;;;1.45;0.50;;;24.60;55.40;;;;;;5088827;28;20052;-79
2022/08/31 13:07:21;;;;;;;0.95;0.45;;;24.60;54.90;;;;;;5090262;28;20039;-79
2022/08/31 13:10:05;;;;;;;1.67;0.65;;;24.60;55.00;;;;;;5089341;28;20040;-79
2022/08/31 13:12:31;;;;;;;1.38;0.40;;;24.30;52.30;;;;;;5106357;28;20032;-80
2022/08/31 13:14:56;;;;;;;2.30;0.40;;;24.20;55.20;;;;;;5087915;28;20523;-79
2022/08/31 13:17:22;;;;;;;2.05;0.55;;;24.30;56.60;;;;;;5110490;27;20039;-80
2022/08/31 13:19:57;;;;;;;2.40;0.45;;;24.50;56.20;;;;;;5104446;28;20042;-78
2022/08/31 13:22:41;;;;;;;1.70;0.40;;;24.50;54.50;;;;;;5138261;27;20044;-80